Weather at Ioannis Kapodistrias International Airport

Public forecast

Using degrees Celsius for public forecast. Weather courtesy of forecast.io.

Current aviation weather report (METAR) for Ioannis Kapodistrias International Airport

Retrieved 2021/04/11 09:20 UTC (38 minutes ago):

LGKR 110920Z 09005KT 9999 FEW018 16/07 Q1024 NOSIG

Aviation forecast (TAF) for Ioannis Kapodistrias International Airport

Retrieved 2021/04/11 06:16 UTC (4 hours ago):

TAF LGKR 110500Z 1106/1206 VRB05KT 9999 FEW025